sensor_id;sensor_type;location;lat;lon;timestamp;temperature;humidity
35463;DHT22;21578;47.892;9.970;2023-02-28T00:00:20;-3.30;96.60
35463;DHT22;21578;47.892;9.970;2023-02-28T00:05:08;-3.20;96.60
35463;DHT22;21578;47.892;9.970;2023-02-28T00:09:57;-3.30;96.60
35463;DHT22;21578;47.892;9.970;2023-02-28T00:14:44;-3.20;96.60
35463;DHT22;21578;47.892;9.970;2023-02-28T00:19:31;-3.30;96.60
35463;DHT22;21578;47.892;9.970;2023-02-28T00:24:18;-3.30;96.60
35463;DHT22;21578;47.892;9.970;2023-02-28T00:29:06;-3.30;96.60
35463;DHT22;21578;47.892;9.970;2023-02-28T00:33:53;-3.30;96.60
35463;DHT22;21578;47.892;9.970;2023-02-28T00:38:41;-3.30;96.60
35463;DHT22;21578;47.892;9.970;2023-02-28T00:43:28;-3.30;96.60
35463;DHT22;21578;47.892;9.970;2023-02-28T00:48:16;-3.30;96.60
35463;DHT22;21578;47.892;9.970;2023-02-28T00:53:03;-3.30;96.60
35463;DHT22;21578;47.892;9.970;2023-02-28T00:57:50;-3.30;96.60
35463;DHT22;21578;47.892;9.970;2023-02-28T01:02:37;-3.30;96.60
35463;DHT22;21578;47.892;9.970;2023-02-28T01:07:25;-3.20;96.60
35463;DHT22;21578;47.892;9.970;2023-02-28T01:12:12;-3.30;96.60
35463;DHT22;21578;47.892;9.970;2023-02-28T01:16:59;-3.30;96.60
35463;DHT22;21578;47.892;9.970;2023-02-28T01:21:46;-3.20;96.60
35463;DHT22;21578;47.892;9.970;2023-02-28T01:26:34;-3.20;96.60
35463;DHT22;21578;47.892;9.970;2023-02-28T01:31:22;-3.20;96.60
35463;DHT22;21578;47.892;9.970;2023-02-28T01:36:11;-3.20;96.60
35463;DHT22;21578;47.892;9.970;2023-02-28T01:40:59;-3.20;96.60
35463;DHT22;21578;47.892;9.970;2023-02-28T01:45:48;-3.30;96.60
35463;DHT22;21578;47.892;9.970;2023-02-28T01:50:37;-3.30;96.60
35463;DHT22;21578;47.892;9.970;2023-02-28T01:55:26;-3.30;96.60
35463;DHT22;21578;47.892;9.970;2023-02-28T02:00:17;-3.30;96.60
35463;DHT22;21578;47.892;9.970;2023-02-28T02:05:08;-3.30;96.60
35463;DHT22;21578;47.892;9.970;2023-02-28T02:10:03;-3.20;96.60
35463;DHT22;21578;47.892;9.970;2023-02-28T02:15:02;-3.20;96.60
35463;DHT22;21578;47.892;9.970;2023-02-28T05:35:23;-3.60;96.60
35463;DHT22;21578;47.892;9.970;2023-02-28T05:40:11;-3.60;96.60
35463;DHT22;21578;47.892;9.970;2023-02-28T05:44:58;-3.60;96.60
35463;DHT22;21578;47.892;9.970;2023-02-28T05:49:45;-3.60;96.60
35463;DHT22;21578;47.892;9.970;2023-02-28T05:54:33;-3.60;96.60
35463;DHT22;21578;47.892;9.970;2023-02-28T05:59:20;-3.60;96.60
35463;DHT22;21578;47.892;9.970;2023-02-28T06:04:09;-3.60;96.60
35463;DHT22;21578;47.892;9.970;2023-02-28T06:08:57;-3.70;96.60
35463;DHT22;21578;47.892;9.970;2023-02-28T06:13:45;-3.80;96.60
35463;DHT22;21578;47.892;9.970;2023-02-28T06:18:32;-3.70;96.60
35463;DHT22;21578;47.892;9.970;2023-02-28T06:23:19;-3.70;96.60
35463;DHT22;21578;47.892;9.970;2023-02-28T06:28:06;-3.70;96.60
35463;DHT22;21578;47.892;9.970;2023-02-28T06:32:54;-3.70;96.60
35463;DHT22;21578;47.892;9.970;2023-02-28T06:37:41;-3.60;96.60
35463;DHT22;21578;47.892;9.970;2023-02-28T06:42:29;-3.70;96.60
35463;DHT22;21578;47.892;9.970;2023-02-28T06:47:16;-3.70;96.60
35463;DHT22;21578;47.892;9.970;2023-02-28T06:52:04;-3.70;96.60
35463;DHT22;21578;47.892;9.970;2023-02-28T06:56:51;-3.70;96.60
35463;DHT22;21578;47.892;9.970;2023-02-28T07:01:39;-3.60;96.60
35463;DHT22;21578;47.892;9.970;2023-02-28T07:06:27;-3.50;96.60
35463;DHT22;21578;47.892;9.970;2023-02-28T07:11:15;-3.60;96.60
35463;DHT22;21578;47.892;9.970;2023-02-28T07:16:04;-3.60;96.60
35463;DHT22;21578;47.892;9.970;2023-02-28T07:20:52;-3.60;96.60
35463;DHT22;21578;47.892;9.970;2023-02-28T07:25:39;-3.60;96.60
35463;DHT22;21578;47.892;9.970;2023-02-28T07:30:27;-3.60;96.60
35463;DHT22;21578;47.892;9.970;2023-02-28T07:35:15;-3.50;96.60
35463;DHT22;21578;47.892;9.970;2023-02-28T07:40:02;-3.50;96.60
35463;DHT22;21578;47.892;9.970;2023-02-28T07:44:51;-3.40;96.60
35463;DHT22;21578;47.892;9.970;2023-02-28T07:49:40;-3.30;96.60
35463;DHT22;21578;47.892;9.970;2023-02-28T07:54:27;-3.20;96.60
35463;DHT22;21578;47.892;9.970;2023-02-28T07:59:14;-3.10;96.60
35463;DHT22;21578;47.892;9.970;2023-02-28T08:04:01;-3.10;96.60
35463;DHT22;21578;47.892;9.970;2023-02-28T08:08:49;-3.10;96.60
35463;DHT22;21578;47.892;9.970;2023-02-28T08:13:36;-3.10;96.60
35463;DHT22;21578;47.892;9.970;2023-02-28T08:18:23;-3.10;96.60
35463;DHT22;21578;47.892;9.970;2023-02-28T08:23:10;-3.10;96.60
35463;DHT22;21578;47.892;9.970;2023-02-28T08:27:59;-3.10;96.60
35463;DHT22;21578;47.892;9.970;2023-02-28T08:32:46;-3.00;96.60
35463;DHT22;21578;47.892;9.970;2023-02-28T08:37:33;-3.00;96.60
35463;DHT22;21578;47.892;9.970;2023-02-28T08:42:20;-3.00;96.60
35463;DHT22;21578;47.892;9.970;2023-02-28T08:47:08;-2.90;96.60
35463;DHT22;21578;47.892;9.970;2023-02-28T08:51:55;-2.80;96.60
35463;DHT22;21578;47.892;9.970;2023-02-28T08:56:42;-2.70;96.60
35463;DHT22;21578;47.892;9.970;2023-02-28T09:01:29;-2.70;96.60
35463;DHT22;21578;47.892;9.970;2023-02-28T09:06:20;-2.60;96.60
35463;DHT22;21578;47.892;9.970;2023-02-28T09:11:07;-2.60;96.60
35463;DHT22;21578;47.892;9.970;2023-02-28T09:15:56;-2.60;96.60
35463;DHT22;21578;47.892;9.970;2023-02-28T09:20:43;-2.50;96.60
35463;DHT22;21578;47.892;9.970;2023-02-28T09:25:32;-2.50;96.60
35463;DHT22;21578;47.892;9.970;2023-02-28T09:30:19;-2.60;96.60
35463;DHT22;21578;47.892;9.970;2023-02-28T09:35:07;-2.40;96.60
35463;DHT22;21578;47.892;9.970;2023-02-28T09:39:58;-2.20;96.60
35463;DHT22;21578;47.892;9.970;2023-02-28T09:44:48;-2.30;96.60
35463;DHT22;21578;47.892;9.970;2023-02-28T09:49:40;-2.40;96.60
35463;DHT22;21578;47.892;9.970;2023-02-28T09:54:29;-2.40;96.60
35463;DHT22;21578;47.892;9.970;2023-02-28T09:59:28;-2.30;96.60
35463;DHT22;21578;47.892;9.970;2023-02-28T10:04:33;-2.20;96.60
35463;DHT22;21578;47.892;9.970;2023-02-28T10:09:25;-1.90;96.60
35463;DHT22;21578;47.892;9.970;2023-02-28T10:14:16;-2.00;96.60
35463;DHT22;21578;47.892;9.970;2023-02-28T10:19:08;-1.80;96.60
35463;DHT22;21578;47.892;9.970;2023-02-28T10:24:05;-1.80;96.60
35463;DHT22;21578;47.892;9.970;2023-02-28T10:28:57;-1.70;96.60
35463;DHT22;21578;47.892;9.970;2023-02-28T10:33:45;-1.60;96.60
35463;DHT22;21578;47.892;9.970;2023-02-28T10:38:34;-1.70;96.60
35463;DHT22;21578;47.892;9.970;2023-02-28T10:43:23;-1.50;96.60
35463;DHT22;21578;47.892;9.970;2023-02-28T10:48:27;-1.50;96.60
35463;DHT22;21578;47.892;9.970;2023-02-28T10:53:34;-1.60;96.60
35463;DHT22;21578;47.892;9.970;2023-02-28T10:58:24;-1.50;96.60
35463;DHT22;21578;47.892;9.970;2023-02-28T11:03:24;-1.40;96.60
35463;DHT22;21578;47.892;9.970;2023-02-28T11:08:14;-1.20;96.60
35463;DHT22;21578;47.892;9.970;2023-02-28T11:13:02;-1.20;96.60
35463;DHT22;21578;47.892;9.970;2023-02-28T11:17:55;-1.40;96.60
35463;DHT22;21578;47.892;9.970;2023-02-28T11:22:44;-1.20;96.60
35463;DHT22;21578;47.892;9.970;2023-02-28T11:27:47;-1.40;96.60
35463;DHT22;21578;47.892;9.970;2023-02-28T11:32:35;-1.40;96.60
35463;DHT22;21578;47.892;9.970;2023-02-28T11:37:23;-1.40;96.60
35463;DHT22;21578;47.892;9.970;2023-02-28T11:42:40;-1.20;96.60
35463;DHT22;21578;47.892;9.970;2023-02-28T11:47:33;-1.10;96.60
35463;DHT22;21578;47.892;9.970;2023-02-28T11:52:28;-1.10;96.60
35463;DHT22;21578;47.892;9.970;2023-02-28T11:57:30;-0.90;96.60
35463;DHT22;21578;47.892;9.970;2023-02-28T12:02:24;-0.80;96.60
35463;DHT22;21578;47.892;9.970;2023-02-28T12:07:16;-1.20;96.60
35463;DHT22;21578;47.892;9.970;2023-02-28T12:12:15;-1.00;96.60
35463;DHT22;21578;47.892;9.970;2023-02-28T12:17:15;-0.90;96.60
35463;DHT22;21578;47.892;9.970;2023-02-28T12:22:16;-1.00;96.60
35463;DHT22;21578;47.892;9.970;2023-02-28T12:27:11;-0.90;96.60
35463;DHT22;21578;47.892;9.970;2023-02-28T12:32:04;-0.90;96.60
35463;DHT22;21578;47.892;9.970;2023-02-28T12:36:54;-0.80;96.60
35463;DHT22;21578;47.892;9.970;2023-02-28T12:41:45;-0.60;96.60
35463;DHT22;21578;47.892;9.970;2023-02-28T12:46:38;-0.60;96.60
35463;DHT22;21578;47.892;9.970;2023-02-28T12:51:28;-0.80;96.60
35463;DHT22;21578;47.892;9.970;2023-02-28T12:56:21;-0.70;96.60
35463;DHT22;21578;47.892;9.970;2023-02-28T13:01:38;-0.50;96.60
35463;DHT22;21578;47.892;9.970;2023-02-28T13:06:41;-0.40;96.60
35463;DHT22;21578;47.892;9.970;2023-02-28T13:11:34;-0.60;96.60
35463;DHT22;21578;47.892;9.970;2023-02-28T13:16:24;-0.70;96.60
35463;DHT22;21578;47.892;9.970;2023-02-28T13:21:23;-0.80;96.60
35463;DHT22;21578;47.892;9.970;2023-02-28T13:26:10;-0.70;96.60
35463;DHT22;21578;47.892;9.970;2023-02-28T13:31:03;-0.80;96.60
35463;DHT22;21578;47.892;9.970;2023-02-28T13:36:07;-0.80;96.60
35463;DHT22;21578;47.892;9.970;2023-02-28T13:46:10;-0.50;96.60
35463;DHT22;21578;47.892;9.970;2023-02-28T13:50:58;-0.40;96.60
35463;DHT22;21578;47.892;9.970;2023-02-28T13:55:46;-0.60;96.60
35463;DHT22;21578;47.892;9.970;2023-02-28T14:00:50;-0.70;96.60
35463;DHT22;21578;47.892;9.970;2023-02-28T14:05:39;-0.90;96.60
35463;DHT22;21578;47.892;9.970;2023-02-28T14:10:29;-0.80;96.60
35463;DHT22;21578;47.892;9.970;2023-02-28T14:20:46;-0.60;96.60
35463;DHT22;21578;47.892;9.970;2023-02-28T14:25:35;-0.60;96.60
35463;DHT22;21578;47.892;9.970;2023-02-28T14:30:52;-0.70;96.60
35463;DHT22;21578;47.892;9.970;2023-02-28T14:35:52;-0.60;96.60
35463;DHT22;21578;47.892;9.970;2023-02-28T14:40:41;-0.60;96.60
35463;DHT22;21578;47.892;9.970;2023-02-28T14:45:31;-0.60;96.60
35463;DHT22;21578;47.892;9.970;2023-02-28T14:50:19;-0.60;96.60
35463;DHT22;21578;47.892;9.970;2023-02-28T14:55:13;-0.60;96.60
35463;DHT22;21578;47.892;9.970;2023-02-28T15:00:03;-0.40;96.60
35463;DHT22;21578;47.892;9.970;2023-02-28T15:04:58;-0.30;96.60
35463;DHT22;21578;47.892;9.970;2023-02-28T15:09:45;-0.40;96.60
35463;DHT22;21578;47.892;9.970;2023-02-28T15:14:35;-0.40;96.60
35463;DHT22;21578;47.892;9.970;2023-02-28T15:19:26;-0.40;96.60
35463;DHT22;21578;47.892;9.970;2023-02-28T15:24:17;-0.40;96.60
35463;DHT22;21578;47.892;9.970;2023-02-28T15:29:15;-0.40;96.60
35463;DHT22;21578;47.892;9.970;2023-02-28T15:34:06;-0.30;96.60
35463;DHT22;21578;47.892;9.970;2023-02-28T15:38:53;-0.20;96.60
35463;DHT22;21578;47.892;9.970;2023-02-28T15:43:40;-0.10;96.60
35463;DHT22;21578;47.892;9.970;2023-02-28T15:48:29;0.00;96.60
35463;DHT22;21578;47.892;9.970;2023-02-28T15:53:22;-0.10;96.60
35463;DHT22;21578;47.892;9.970;2023-02-28T15:58:11;-0.10;96.60
35463;DHT22;21578;47.892;9.970;2023-02-28T16:02:59;-0.20;96.60
35463;DHT22;21578;47.892;9.970;2023-02-28T16:07:46;-0.10;96.60
35463;DHT22;21578;47.892;9.970;2023-02-28T16:12:37;-0.10;96.60
35463;DHT22;21578;47.892;9.970;2023-02-28T16:17:25;-0.10;96.60
35463;DHT22;21578;47.892;9.970;2023-02-28T16:22:13;-0.20;96.60
35463;DHT22;21578;47.892;9.970;2023-02-28T16:27:00;-0.30;96.60
35463;DHT22;21578;47.892;9.970;2023-02-28T16:31:48;-0.20;96.60
35463;DHT22;21578;47.892;9.970;2023-02-28T16:36:35;-0.30;96.60
35463;DHT22;21578;47.892;9.970;2023-02-28T16:41:25;-0.40;96.60
35463;DHT22;21578;47.892;9.970;2023-02-28T16:46:12;-0.50;96.60
35463;DHT22;21578;47.892;9.970;2023-02-28T16:51:01;-0.50;96.60
35463;DHT22;21578;47.892;9.970;2023-02-28T16:55:49;-0.50;96.60
35463;DHT22;21578;47.892;9.970;2023-02-28T17:00:37;-0.50;96.60
35463;DHT22;21578;47.892;9.970;2023-02-28T17:05:26;-0.50;96.60
35463;DHT22;21578;47.892;9.970;2023-02-28T17:10:17;-0.60;96.60
35463;DHT22;21578;47.892;9.970;2023-02-28T17:15:06;-0.60;96.60
35463;DHT22;21578;47.892;9.970;2023-02-28T17:19:53;-0.70;96.60
35463;DHT22;21578;47.892;9.970;2023-02-28T17:24:40;-0.80;96.60
35463;DHT22;21578;47.892;9.970;2023-02-28T17:29:28;-0.80;96.60
35463;DHT22;21578;47.892;9.970;2023-02-28T17:34:15;-0.90;96.60
35463;DHT22;21578;47.892;9.970;2023-02-28T17:39:04;-1.00;96.60
35463;DHT22;21578;47.892;9.970;2023-02-28T17:43:55;-1.10;96.60
35463;DHT22;21578;47.892;9.970;2023-02-28T17:48:44;-1.10;96.60
35463;DHT22;21578;47.892;9.970;2023-02-28T17:53:31;-1.20;96.60
35463;DHT22;21578;47.892;9.970;2023-02-28T17:58:18;-1.20;96.60
35463;DHT22;21578;47.892;9.970;2023-02-28T18:03:05;-1.20;96.60
35463;DHT22;21578;47.892;9.970;2023-02-28T18:07:53;-1.30;96.60
35463;DHT22;21578;47.892;9.970;2023-02-28T18:12:40;-1.40;96.60
35463;DHT22;21578;47.892;9.970;2023-02-28T18:17:27;-1.40;96.60
35463;DHT22;21578;47.892;9.970;2023-02-28T18:22:14;-1.50;96.60
35463;DHT22;21578;47.892;9.970;2023-02-28T18:27:02;-1.60;96.60
35463;DHT22;21578;47.892;9.970;2023-02-28T18:31:51;-1.60;96.60
35463;DHT22;21578;47.892;9.970;2023-02-28T18:36:38;-1.70;96.60
35463;DHT22;21578;47.892;9.970;2023-02-28T18:41:26;-1.60;96.60
35463;DHT22;21578;47.892;9.970;2023-02-28T18:46:18;-1.60;96.60
35463;DHT22;21578;47.892;9.970;2023-02-28T18:51:10;-1.70;96.60
35463;DHT22;21578;47.892;9.970;2023-02-28T18:55:59;-1.70;96.60
35463;DHT22;21578;47.892;9.970;2023-02-28T19:00:47;-1.80;96.60
35463;DHT22;21578;47.892;9.970;2023-02-28T19:05:36;-1.90;96.60
35463;DHT22;21578;47.892;9.970;2023-02-28T19:10:23;-1.90;96.60
35463;DHT22;21578;47.892;9.970;2023-02-28T19:15:10;-2.00;96.60
35463;DHT22;21578;47.892;9.970;2023-02-28T19:19:58;-2.00;96.60
35463;DHT22;21578;47.892;9.970;2023-02-28T19:24:46;-2.00;96.60
35463;DHT22;21578;47.892;9.970;2023-02-28T19:29:33;-2.00;96.60
35463;DHT22;21578;47.892;9.970;2023-02-28T19:34:20;-2.00;96.60
35463;DHT22;21578;47.892;9.970;2023-02-28T19:39:07;-2.00;96.60
35463;DHT22;21578;47.892;9.970;2023-02-28T19:43:55;-2.00;96.60
35463;DHT22;21578;47.892;9.970;2023-02-28T19:48:42;-2.00;96.60
35463;DHT22;21578;47.892;9.970;2023-02-28T19:53:30;-2.10;96.60
35463;DHT22;21578;47.892;9.970;2023-02-28T19:58:17;-2.10;96.60
35463;DHT22;21578;47.892;9.970;2023-02-28T20:03:05;-2.20;96.60
35463;DHT22;21578;47.892;9.970;2023-02-28T20:07:52;-2.10;96.60
35463;DHT22;21578;47.892;9.970;2023-02-28T20:12:39;-2.10;96.60
35463;DHT22;21578;47.892;9.970;2023-02-28T20:17:27;-2.10;96.60
35463;DHT22;21578;47.892;9.970;2023-02-28T20:22:16;-2.10;96.60
35463;DHT22;21578;47.892;9.970;2023-02-28T20:27:03;-2.10;96.60
35463;DHT22;21578;47.892;9.970;2023-02-28T20:31:50;-2.10;96.60
35463;DHT22;21578;47.892;9.970;2023-02-28T20:36:37;-2.10;96.60
35463;DHT22;21578;47.892;9.970;2023-02-28T20:41:25;-2.00;96.60
35463;DHT22;21578;47.892;9.970;2023-02-28T20:46:12;-1.90;96.60
35463;DHT22;21578;47.892;9.970;2023-02-28T20:51:00;-1.90;96.60
35463;DHT22;21578;47.892;9.970;2023-02-28T20:55:55;-1.80;96.60
35463;DHT22;21578;47.892;9.970;2023-02-28T21:00:43;-1.80;96.60
35463;DHT22;21578;47.892;9.970;2023-02-28T21:05:30;-1.90;96.60
35463;DHT22;21578;47.892;9.970;2023-02-28T21:10:18;-1.80;96.60
35463;DHT22;21578;47.892;9.970;2023-02-28T21:15:07;-1.80;96.60
35463;DHT22;21578;47.892;9.970;2023-02-28T21:19:55;-1.80;96.60
35463;DHT22;21578;47.892;9.970;2023-02-28T21:24:42;-1.70;96.60
35463;DHT22;21578;47.892;9.970;2023-02-28T21:29:29;-1.70;96.60
35463;DHT22;21578;47.892;9.970;2023-02-28T21:34:16;-1.60;96.60
35463;DHT22;21578;47.892;9.970;2023-02-28T21:39:07;-1.70;96.60
35463;DHT22;21578;47.892;9.970;2023-02-28T21:43:55;-1.60;96.60
35463;DHT22;21578;47.892;9.970;2023-02-28T21:48:42;-1.60;96.60
35463;DHT22;21578;47.892;9.970;2023-02-28T21:53:30;-1.60;96.60
35463;DHT22;21578;47.892;9.970;2023-02-28T21:58:18;-1.60;96.60
35463;DHT22;21578;47.892;9.970;2023-02-28T22:03:05;-1.70;96.60
35463;DHT22;21578;47.892;9.970;2023-02-28T22:07:52;-1.70;96.60
35463;DHT22;21578;47.892;9.970;2023-02-28T22:12:39;-1.70;96.60
35463;DHT22;21578;47.892;9.970;2023-02-28T22:17:27;-1.60;96.60
35463;DHT22;21578;47.892;9.970;2023-02-28T22:22:14;-1.70;96.60
35463;DHT22;21578;47.892;9.970;2023-02-28T22:27:01;-1.70;96.60
35463;DHT22;21578;47.892;9.970;2023-02-28T22:31:48;-1.70;96.60
35463;DHT22;21578;47.892;9.970;2023-02-28T22:36:39;-1.70;96.60
35463;DHT22;21578;47.892;9.970;2023-02-28T22:41:27;-1.60;96.60
35463;DHT22;21578;47.892;9.970;2023-02-28T22:46:14;-1.70;96.60
35463;DHT22;21578;47.892;9.970;2023-02-28T22:51:02;-1.60;96.60
35463;DHT22;21578;47.892;9.970;2023-02-28T22:55:54;-1.60;96.60
35463;DHT22;21578;47.892;9.970;2023-02-28T23:00:41;-1.50;96.60
35463;DHT22;21578;47.892;9.970;2023-02-28T23:05:29;-1.50;96.60
35463;DHT22;21578;47.892;9.970;2023-02-28T23:10:16;-1.50;96.60
35463;DHT22;21578;47.892;9.970;2023-02-28T23:15:06;-1.40;96.60
35463;DHT22;21578;47.892;9.970;2023-02-28T23:19:53;-1.40;96.60
35463;DHT22;21578;47.892;9.970;2023-02-28T23:24:40;-1.40;96.60
35463;DHT22;21578;47.892;9.970;2023-02-28T23:29:27;-1.40;96.60
35463;DHT22;21578;47.892;9.970;2023-02-28T23:34:16;-1.30;96.60
35463;DHT22;21578;47.892;9.970;2023-02-28T23:39:11;-1.30;96.60
35463;DHT22;21578;47.892;9.970;2023-02-28T23:43:57;-1.20;96.60
35463;DHT22;21578;47.892;9.970;2023-02-28T23:48:44;-1.20;96.60
35463;DHT22;21578;47.892;9.970;2023-02-28T23:53:33;-1.20;96.60
35463;DHT22;21578;47.892;9.970;2023-02-28T23:58:20;-1.20;96.60
